Airfield :
LOGIN :

Register | Disclaimer

   EN    FR    IT 

 










Legend :    VFR   Marginal VFR   IFR   Intensive IFR   Very Intensive IFR
Visi :
Ceiling :
>= 8 km
>= 3000ft
5 to 8 km
1000 to 3000 ft
1500m to 5 km
500 to 1000 ft
800 to 1500m
200 to 500 ft
< 800m
< 200 ft
Symbols :   Thunderstorms  Fog  Heavy snow  Heavy precipitations  Wind > 20 kt
SIGMETs :     Misc.  Thunderstorms  Icing  Turbulence  Mountain Waves  Volcanic Ashes







- Airport Elevation : 423 ft
- IATA code : PIS
- Download approach charts


LFBI - Poitiers

CURRENT METAR :
  • 160300Z AUTO 33004KT CAVOK 17/11 Q1021 NOSIG

EXPIRED METARs :
  • 160230Z AUTO 31003KT CAVOK 17/10 Q1020 NOSIG
  • 160200Z AUTO 34003KT CAVOK 17/10 Q1021 NOSIG
  • 160130Z AUTO 35004KT CAVOK 18/11 Q1020 NOSIG
  • 160100Z AUTO 36004KT CAVOK 18/11 Q1021 NOSIG
  • 160030Z AUTO 02005KT CAVOK 18/11 Q1021 NOSIG

TAF TAF LFBI
Valid from the 16 at 00:00 until the 17 at 00:00 UTC


152300Z 1600/1624 03005KT CAVOK
No reported NOTAMs for that airfield.



MET'MAP, your aeronautical weather chart ! - Copyright ORBIFLY December 2007 - Disclaimer

ORBIFLY MET'MAP TEAM :

Programming & Development : Alexandra Zaïnal
Concept & Development : Baudouin d'Aumeries
Co-Development & Prog : Marc-Olivier Méhu
Technical & hardware support : Manuel Goepfert

Contact : metmap@orbifly.com




SOURCES & CREDITS :

   NOAA